createdAt,value
2022-11-26T00:00:02.255Z,99.90
2022-11-26T00:02:34.239Z,99.90
2022-11-26T00:05:04.024Z,99.90
2022-11-26T00:07:35.520Z,99.90
2022-11-26T00:10:07.029Z,99.90
2022-11-26T00:12:37.460Z,99.90
2022-11-26T00:15:17.504Z,99.90
2022-11-26T00:17:48.993Z,99.90
2022-11-26T00:20:19.382Z,99.90
2022-11-26T00:22:52.881Z,99.90
2022-11-26T00:25:24.737Z,99.90
2022-11-26T00:27:56.999Z,99.90
2022-11-26T00:30:28.535Z,99.90
2022-11-26T00:33:00.630Z,99.90
2022-11-26T00:35:30.233Z,99.90
2022-11-26T00:38:00.663Z,99.90
2022-11-26T00:40:38.248Z,99.90
2022-11-26T00:43:12.252Z,99.90
2022-11-26T00:45:42.145Z,99.90
2022-11-26T00:48:13.084Z,99.90
2022-11-26T00:50:44.778Z,99.90
2022-11-26T00:53:16.624Z,99.90
2022-11-26T00:55:48.400Z,99.90
2022-11-26T00:58:26.298Z,99.90
2022-11-26T01:00:56.878Z,99.90
2022-11-26T01:03:28.462Z,99.90
2022-11-26T01:06:00.826Z,99.90
2022-11-26T01:08:35.063Z,99.90
2022-11-26T01:11:07.127Z,99.90
2022-11-26T01:13:36.723Z,99.90
2022-11-26T01:16:20.406Z,99.90
2022-11-26T01:18:54.793Z,99.90
2022-11-26T01:21:26.340Z,99.90
2022-11-26T01:23:55.839Z,99.90
2022-11-26T01:26:27.987Z,88.10
2022-11-26T01:28:57.617Z,99.90
2022-11-26T01:31:29.014Z,99.90
2022-11-26T01:34:00.402Z,99.90
2022-11-26T01:36:31.556Z,99.90
2022-11-26T01:39:03.290Z,99.90
2022-11-26T01:41:46.343Z,74.60
2022-11-26T01:44:21.565Z,99.90
2022-11-26T01:46:52.526Z,99.90
2022-11-26T01:49:26.109Z,99.90
2022-11-26T01:52:03.176Z,92.10
2022-11-26T01:54:34.933Z,99.90
2022-11-26T01:57:10.173Z,99.90
2022-11-26T01:59:42.769Z,99.90
2022-11-26T02:02:13.107Z,99.90
2022-11-26T02:04:48.738Z,99.90
2022-11-26T02:07:18.255Z,99.90
2022-11-26T02:09:48.975Z,99.90
2022-11-26T02:12:19.199Z,99.90
2022-11-26T02:14:48.899Z,99.90
2022-11-26T02:17:28.871Z,99.90
2022-11-26T02:20:28.475Z,99.90
2022-11-26T02:23:32.896Z,99.90
2022-11-26T02:26:39.471Z,99.90
2022-11-26T02:29:25.570Z,1.00
2022-11-26T02:32:02.600Z,1.00
2022-11-26T02:34:41.072Z,1.00
2022-11-26T02:37:16.600Z,1.00
2022-11-26T02:39:46.103Z,1.00
2022-11-26T02:42:28.528Z,1.00
2022-11-26T02:45:01.188Z,1.00
2022-11-26T02:47:34.182Z,1.00
2022-11-26T02:50:08.701Z,1.00
2022-11-26T02:52:41.891Z,1.00
2022-11-26T02:55:13.726Z,1.00
2022-11-26T02:57:48.785Z,1.00
2022-11-26T03:00:19.422Z,1.00
2022-11-26T03:02:54.540Z,1.00
2022-11-26T03:05:24.046Z,1.00
2022-11-26T03:07:55.937Z,1.00
2022-11-26T03:10:29.103Z,1.00
2022-11-26T03:12:59.016Z,1.00
2022-11-26T03:15:28.422Z,1.00
2022-11-26T03:17:59.683Z,1.00
2022-11-26T03:20:29.474Z,1.00
2022-11-26T03:22:58.971Z,1.00
2022-11-26T03:25:28.557Z,1.00
2022-11-26T03:27:58.187Z,1.00
2022-11-26T03:30:27.697Z,1.00
2022-11-26T03:32:58.849Z,1.00
2022-11-26T03:35:28.450Z,25.10
2022-11-26T03:37:57.962Z,13.40
2022-11-26T03:40:27.767Z,27.50
2022-11-26T03:42:57.273Z,26.30
2022-11-26T03:45:26.775Z,29.80
2022-11-26T03:47:56.060Z,42.20
2022-11-26T03:50:27.206Z,63.50
2022-11-26T03:52:56.611Z,63.70
2022-11-26T03:55:26.225Z,37.90
2022-11-26T03:57:55.627Z,91.60
2022-11-26T04:00:25.234Z,93.50
2022-11-26T04:02:54.843Z,80.40
2022-11-26T04:05:24.434Z,66.70
2022-11-26T04:07:55.464Z,90.10
2022-11-26T04:10:25.909Z,71.10
2022-11-26T04:12:55.313Z,58.00
2022-11-26T04:15:24.719Z,91.40
2022-11-26T04:17:54.229Z,99.90
2022-11-26T04:20:23.937Z,99.90
2022-11-26T04:22:55.274Z,99.90
2022-11-26T04:25:24.725Z,99.90
2022-11-26T04:27:54.490Z,99.90
2022-11-26T04:30:23.986Z,99.90
2022-11-26T04:32:53.403Z,99.90
2022-11-26T04:35:22.904Z,99.90
2022-11-26T04:37:52.514Z,99.90
2022-11-26T04:40:23.551Z,99.90
2022-11-26T04:42:53.154Z,99.90
2022-11-26T04:45:22.771Z,99.90
2022-11-26T04:47:52.270Z,99.90
2022-11-26T04:50:22.174Z,99.90
2022-11-26T04:52:51.697Z,99.90
2022-11-26T04:55:22.846Z,99.90
2022-11-26T04:57:52.446Z,99.90
2022-11-26T05:00:22.760Z,99.90
2022-11-26T05:02:52.297Z,99.90
2022-11-26T05:05:22.097Z,99.90
2022-11-26T05:07:51.633Z,99.90
2022-11-26T05:10:22.831Z,99.90
2022-11-26T05:12:52.361Z,99.90
2022-11-26T05:15:23.372Z,99.90
2022-11-26T05:17:53.000Z,99.90
2022-11-26T05:20:22.580Z,99.90
2022-11-26T05:22:52.298Z,99.90
2022-11-26T05:25:23.452Z,99.90
2022-11-26T05:27:53.156Z,99.90
2022-11-26T05:30:23.269Z,99.90
2022-11-26T05:32:52.872Z,99.90
2022-11-26T05:35:22.574Z,99.90
2022-11-26T05:37:52.091Z,99.90
2022-11-26T05:40:23.223Z,99.90
2022-11-26T05:42:52.528Z,99.90
2022-11-26T05:45:22.438Z,99.90
2022-11-26T05:47:52.350Z,99.90
2022-11-26T05:50:21.971Z,99.90
2022-11-26T05:52:51.473Z,99.90
2022-11-26T05:55:23.432Z,99.90
2022-11-26T05:57:52.837Z,99.90
2022-11-26T06:00:22.540Z,99.90
2022-11-26T06:02:52.218Z,99.90
2022-11-26T06:05:21.740Z,99.90
2022-11-26T06:07:51.727Z,99.90
2022-11-26T06:10:23.422Z,99.90
2022-11-26T06:12:52.940Z,99.90
2022-11-26T06:15:22.350Z,99.90
2022-11-26T06:17:52.141Z,99.90
2022-11-26T06:20:21.848Z,99.90
2022-11-26T06:22:51.459Z,99.90
2022-11-26T06:25:20.965Z,99.90
2022-11-26T06:27:52.716Z,99.90
2022-11-26T06:30:22.431Z,99.90
2022-11-26T06:32:52.030Z,99.90
2022-11-26T06:35:21.643Z,99.90
2022-11-26T06:37:51.659Z,99.90
2022-11-26T06:40:22.384Z,99.90
2022-11-26T06:42:54.669Z,99.90
2022-11-26T06:45:25.121Z,99.90
2022-11-26T06:47:55.426Z,99.90
2022-11-26T06:50:25.530Z,99.90
2022-11-26T06:52:55.745Z,99.90
2022-11-26T06:55:25.259Z,99.90
2022-11-26T06:57:56.412Z,99.90
2022-11-26T07:00:25.329Z,99.90
2022-11-26T07:02:54.198Z,99.90
2022-11-26T07:05:22.911Z,99.90
2022-11-26T07:07:51.629Z,99.90
2022-11-26T07:10:20.457Z,99.90
2022-11-26T07:12:49.179Z,99.90
2022-11-26T07:15:19.640Z,99.90
2022-11-26T07:17:48.809Z,99.90
2022-11-26T07:20:18.053Z,99.90
2022-11-26T07:23:03.178Z,99.90
2022-11-26T07:25:32.562Z,99.90
2022-11-26T07:28:01.205Z,99.90
2022-11-26T07:30:31.273Z,99.90
2022-11-26T07:33:00.950Z,99.90
2022-11-26T07:35:29.553Z,99.90
2022-11-26T07:37:58.635Z,99.90
2022-11-26T07:40:27.523Z,99.90
2022-11-26T07:42:56.095Z,99.90
2022-11-26T07:45:24.739Z,99.90
2022-11-26T07:47:54.851Z,99.90
2022-11-26T07:50:23.585Z,99.90
2022-11-26T07:52:53.865Z,99.90
2022-11-26T07:55:22.584Z,99.90
2022-11-26T07:57:51.326Z,99.90
2022-11-26T08:00:21.171Z,99.90
2022-11-26T08:02:49.890Z,99.90
2022-11-26T08:05:20.183Z,99.90
2022-11-26T08:07:48.968Z,99.90
2022-11-26T08:10:17.861Z,99.90
2022-11-26T08:12:51.277Z,99.90
2022-11-26T08:15:21.470Z,99.90
2022-11-26T08:17:50.090Z,99.90
2022-11-26T08:20:23.334Z,99.90
2022-11-26T08:22:56.200Z,99.90
2022-11-26T08:25:24.780Z,99.90
2022-11-26T08:27:53.483Z,99.90
2022-11-26T08:30:22.302Z,99.90
2022-11-26T08:32:50.921Z,99.90
2022-11-26T08:35:20.952Z,99.90
2022-11-26T08:37:49.639Z,99.90
2022-11-26T08:40:18.444Z,99.90
2022-11-26T08:42:47.103Z,99.90
2022-11-26T08:45:15.852Z,99.90
2022-11-26T08:47:44.657Z,99.90
2022-11-26T08:50:14.914Z,99.90
2022-11-26T08:52:45.115Z,99.90
2022-11-26T08:55:13.840Z,99.90
2022-11-26T08:57:42.661Z,99.90
2022-11-26T09:00:12.441Z,99.90
2022-11-26T09:02:41.074Z,99.90
2022-11-26T09:05:10.386Z,99.90
2022-11-26T09:07:39.203Z,99.90
2022-11-26T09:10:10.925Z,99.90
2022-11-26T09:12:40.520Z,99.90
2022-11-26T09:15:10.741Z,99.90
2022-11-26T09:17:39.365Z,99.90
2022-11-26T09:20:09.699Z,99.90
2022-11-26T09:22:39.664Z,99.90
2022-11-26T09:25:11.002Z,99.90
2022-11-26T09:27:39.739Z,99.90
2022-11-26T09:30:09.547Z,99.90
2022-11-26T09:32:39.148Z,99.90
2022-11-26T09:35:09.710Z,99.90
2022-11-26T09:37:39.029Z,99.90
2022-11-26T09:40:11.803Z,99.90
2022-11-26T09:42:51.654Z,99.90
2022-11-26T09:45:34.405Z,99.90
2022-11-26T09:48:05.974Z,99.90
2022-11-26T09:50:38.737Z,99.90
2022-11-26T09:53:16.408Z,99.90
2022-11-26T09:55:50.481Z,99.90
2022-11-26T09:58:27.533Z,99.90
2022-11-26T10:00:58.946Z,99.90
2022-11-26T10:03:33.531Z,99.90
2022-11-26T10:06:06.964Z,99.90
2022-11-26T10:09:02.968Z,99.90
2022-11-26T10:11:41.921Z,99.90
2022-11-26T10:14:26.803Z,99.90
2022-11-26T10:17:10.298Z,99.90
2022-11-26T10:19:51.937Z,99.90
2022-11-26T10:22:24.663Z,99.90
2022-11-26T10:24:54.382Z,99.90
2022-11-26T10:27:31.301Z,99.90
2022-11-26T10:30:03.394Z,99.90
2022-11-26T10:32:38.226Z,98.70
2022-11-26T10:35:07.967Z,67.40
2022-11-26T10:37:36.767Z,74.70
2022-11-26T10:40:19.915Z,75.10
2022-11-26T10:43:01.297Z,65.90
2022-11-26T10:45:39.033Z,93.90
2022-11-26T10:48:18.384Z,92.30
2022-11-26T10:50:57.986Z,59.90
2022-11-26T10:53:28.476Z,59.80
2022-11-26T10:56:00.606Z,67.70
2022-11-26T10:58:38.882Z,48.80
2022-11-26T11:01:08.837Z,5.80
2022-11-26T11:04:09.455Z,4.00
2022-11-26T11:06:45.202Z,37.80
2022-11-26T11:09:38.358Z,41.60
2022-11-26T11:12:22.559Z,51.30
2022-11-26T11:14:53.900Z,52.90
2022-11-26T11:17:35.698Z,62.40
2022-11-26T11:20:28.713Z,52.10
2022-11-26T11:23:07.854Z,50.80
2022-11-26T11:25:38.468Z,33.60
2022-11-26T11:28:15.699Z,36.40
2022-11-26T11:30:47.289Z,29.40
2022-11-26T11:33:23.594Z,35.40
2022-11-26T11:36:04.972Z,29.60
2022-11-26T11:38:36.353Z,25.30
2022-11-26T11:41:13.048Z,12.80
2022-11-26T11:43:42.481Z,28.90
2022-11-26T11:46:36.434Z,26.10
2022-11-26T11:49:19.815Z,32.50
2022-11-26T11:52:01.976Z,47.30
2022-11-26T11:54:37.516Z,49.70
2022-11-26T11:57:15.160Z,51.50
2022-11-26T12:00:13.647Z,47.00
2022-11-26T12:03:14.232Z,44.80
2022-11-26T12:06:00.200Z,31.80
2022-11-26T12:08:41.004Z,31.50
2022-11-26T12:11:24.648Z,23.80
2022-11-26T12:13:57.748Z,13.80
2022-11-26T12:16:30.368Z,1.00
2022-11-26T12:19:04.591Z,1.00
2022-11-26T12:21:40.984Z,1.00
2022-11-26T12:24:15.628Z,1.00
2022-11-26T12:26:49.346Z,1.00
2022-11-26T12:29:24.075Z,1.00
2022-11-26T12:31:57.494Z,1.00
2022-11-26T12:34:33.702Z,1.00
2022-11-26T12:37:05.272Z,1.00
2022-11-26T12:39:41.273Z,1.00
2022-11-26T12:42:18.296Z,1.00
2022-11-26T12:44:52.192Z,1.00
2022-11-26T12:47:26.346Z,1.00
2022-11-26T12:50:08.585Z,1.00
2022-11-26T12:52:56.120Z,1.00
2022-11-26T12:55:29.831Z,1.00
2022-11-26T12:58:03.577Z,1.00
2022-11-26T13:00:36.722Z,1.00
2022-11-26T13:03:08.052Z,1.00
2022-11-26T13:05:51.627Z,1.00
2022-11-26T13:08:34.769Z,1.00
2022-11-26T13:11:19.179Z,20.20
2022-11-26T13:13:55.135Z,28.00
2022-11-26T13:16:29.839Z,29.20
2022-11-26T13:19:06.705Z,32.30
2022-11-26T13:22:14.309Z,45.00
2022-11-26T13:24:58.147Z,38.30
2022-11-26T13:27:39.678Z,44.60
2022-11-26T13:30:21.379Z,67.20
2022-11-26T13:33:14.882Z,37.30
2022-11-26T13:36:24.242Z,43.00
2022-11-26T13:39:06.549Z,29.30
2022-11-26T13:42:11.305Z,26.00
2022-11-26T13:45:13.211Z,23.30
2022-11-26T13:47:46.917Z,24.70
2022-11-26T13:50:19.265Z,24.70
2022-11-26T13:52:52.545Z,25.70
2022-11-26T13:55:25.667Z,27.10
2022-11-26T13:57:59.486Z,30.80
2022-11-26T14:00:32.589Z,39.60
2022-11-26T14:03:03.073Z,48.20
2022-11-26T14:06:07.990Z,69.60
2022-11-26T14:08:39.885Z,75.20
2022-11-26T14:11:10.308Z,56.50
2022-11-26T14:13:41.189Z,68.00
2022-11-26T14:16:10.826Z,87.50
2022-11-26T14:19:01.003Z,93.00
2022-11-26T14:21:31.474Z,90.50
2022-11-26T14:24:02.018Z,72.70
2022-11-26T14:26:34.621Z,65.60
2022-11-26T14:29:14.171Z,52.90
2022-11-26T14:31:50.420Z,53.10
2022-11-26T14:34:25.478Z,60.80
2022-11-26T14:36:57.268Z,59.80
2022-11-26T14:39:26.762Z,58.20
2022-11-26T14:42:01.932Z,52.30
2022-11-26T14:44:35.661Z,54.00
2022-11-26T14:47:12.762Z,52.40
2022-11-26T14:49:44.165Z,53.10
2022-11-26T14:52:21.363Z,52.70
2022-11-26T14:54:53.719Z,56.40
2022-11-26T14:57:27.754Z,59.60
2022-11-26T15:00:03.441Z,53.00
2022-11-26T15:02:33.125Z,41.80
2022-11-26T15:05:04.139Z,37.00
2022-11-26T15:07:33.743Z,34.00
2022-11-26T15:10:04.682Z,34.80
2022-11-26T15:12:36.650Z,29.20
2022-11-26T15:15:11.918Z,26.10
2022-11-26T15:17:44.726Z,23.40
2022-11-26T15:20:17.078Z,25.60
2022-11-26T15:22:51.557Z,40.20
2022-11-26T15:25:22.653Z,39.60
2022-11-26T15:27:59.955Z,36.00
2022-11-26T15:30:37.310Z,40.10
2022-11-26T15:33:15.200Z,54.90
2022-11-26T15:35:46.654Z,61.20
2022-11-26T15:38:19.750Z,53.20
2022-11-26T15:40:57.450Z,40.80
2022-11-26T15:43:33.971Z,49.30
2022-11-26T15:46:15.112Z,51.50
2022-11-26T15:48:52.789Z,47.10
2022-11-26T15:51:35.991Z,42.10
2022-11-26T15:54:09.804Z,36.30
2022-11-26T15:56:41.958Z,32.20
2022-11-26T15:59:17.427Z,30.90
2022-11-26T16:01:48.916Z,35.30
2022-11-26T16:04:44.769Z,45.80
2022-11-26T16:07:15.960Z,37.20
2022-11-26T16:09:45.478Z,32.20
2022-11-26T16:12:32.741Z,27.60
2022-11-26T16:15:14.840Z,39.90
2022-11-26T16:17:47.334Z,36.50
2022-11-26T16:20:21.262Z,39.00
2022-11-26T16:22:52.002Z,47.40
2022-11-26T16:25:27.020Z,42.00
2022-11-26T16:28:06.956Z,47.50
2022-11-26T16:30:36.373Z,53.60
2022-11-26T16:33:07.801Z,52.60
2022-11-26T16:35:46.405Z,54.40
2022-11-26T16:38:22.209Z,52.80
2022-11-26T16:40:52.082Z,47.30
2022-11-26T16:43:21.273Z,46.50
2022-11-26T16:45:51.656Z,47.30
2022-11-26T16:48:26.023Z,48.70
2022-11-26T16:50:56.254Z,49.50
2022-11-26T16:53:25.272Z,47.40
2022-11-26T16:55:55.035Z,46.60
2022-11-26T16:58:30.643Z,38.60
2022-11-26T17:00:59.948Z,38.00
2022-11-26T17:03:33.352Z,43.20
2022-11-26T17:06:05.834Z,48.90
2022-11-26T17:08:36.554Z,60.50
2022-11-26T17:11:07.429Z,69.90
2022-11-26T17:13:36.760Z,63.60
2022-11-26T17:16:05.681Z,60.80
2022-11-26T17:18:35.980Z,58.00
2022-11-26T17:21:05.367Z,61.10
2022-11-26T17:23:34.408Z,57.10
2022-11-26T17:26:04.633Z,64.20
2022-11-26T17:28:34.572Z,58.60
2022-11-26T17:31:03.739Z,52.10
2022-11-26T17:33:32.830Z,64.70
2022-11-26T17:36:03.966Z,90.00
2022-11-26T17:38:33.173Z,91.00
2022-11-26T17:41:01.857Z,91.60
2022-11-26T17:43:30.805Z,96.40
2022-11-26T17:46:01.921Z,94.70
2022-11-26T17:48:30.815Z,97.10
2022-11-26T17:50:59.707Z,88.50
2022-11-26T17:53:29.981Z,92.20
2022-11-26T17:55:58.636Z,97.00
2022-11-26T17:58:29.686Z,96.30
2022-11-26T18:00:59.788Z,91.90
2022-11-26T18:03:31.710Z,89.30
2022-11-26T18:06:00.394Z,81.60
2022-11-26T18:08:31.395Z,83.90
2022-11-26T18:11:00.972Z,80.50
2022-11-26T18:13:30.129Z,83.20
2022-11-26T18:16:00.657Z,84.80
2022-11-26T18:18:29.964Z,78.00
2022-11-26T18:20:58.693Z,68.20
2022-11-26T18:23:38.509Z,72.70
2022-11-26T18:26:18.343Z,72.20
2022-11-26T18:28:48.019Z,69.40
2022-11-26T18:31:17.321Z,73.20
2022-11-26T18:33:46.878Z,75.30
2022-11-26T18:36:16.681Z,74.80
2022-11-26T18:38:46.939Z,81.30
2022-11-26T18:41:16.181Z,88.80
2022-11-26T18:43:45.177Z,91.40
2022-11-26T18:46:17.697Z,87.80
2022-11-26T18:48:48.424Z,90.70
2022-11-26T18:51:18.629Z,85.80
2022-11-26T18:53:48.900Z,71.00
2022-11-26T18:56:19.658Z,81.80
2022-11-26T18:58:48.478Z,75.00
2022-11-26T19:01:20.785Z,68.50
2022-11-26T19:03:49.945Z,63.70
2022-11-26T19:06:21.262Z,60.30
2022-11-26T19:08:52.715Z,56.60
2022-11-26T19:11:22.984Z,53.00
2022-11-26T19:13:52.059Z,50.90
2022-11-26T19:16:22.292Z,48.50
2022-11-26T19:18:52.023Z,50.50
2022-11-26T19:21:23.937Z,47.50
2022-11-26T19:23:56.536Z,47.50
2022-11-26T19:26:26.262Z,52.00
2022-11-26T19:28:55.296Z,50.50
2022-11-26T19:31:27.547Z,51.00
2022-11-26T19:33:58.790Z,49.60
2022-11-26T19:36:31.397Z,47.70
2022-11-26T19:39:06.110Z,48.90
2022-11-26T19:41:35.724Z,55.60
2022-11-26T19:44:07.652Z,52.80
2022-11-26T19:46:42.466Z,50.60
2022-11-26T19:49:17.529Z,54.70
2022-11-26T19:51:47.146Z,55.40
2022-11-26T19:54:17.947Z,57.30
2022-11-26T19:56:50.007Z,62.00
2022-11-26T19:59:20.462Z,60.30
2022-11-26T20:01:49.966Z,51.20
2022-11-26T20:04:24.659Z,57.80
2022-11-26T20:06:56.134Z,64.30
2022-11-26T20:09:27.185Z,67.40
2022-11-26T20:11:57.982Z,59.20
2022-11-26T20:14:27.911Z,73.50
2022-11-26T20:17:11.000Z,81.90
2022-11-26T20:19:49.570Z,89.50
2022-11-26T20:22:19.554Z,91.30
2022-11-26T20:24:50.934Z,87.70
2022-11-26T20:27:24.895Z,90.60
2022-11-26T20:29:54.464Z,98.30
2022-11-26T20:32:33.453Z,97.40
2022-11-26T20:35:03.238Z,96.00
2022-11-26T20:37:32.394Z,91.20
2022-11-26T20:40:04.196Z,94.60
2022-11-26T20:42:35.222Z,99.90
2022-11-26T20:45:04.587Z,99.90
2022-11-26T20:47:33.846Z,97.20
2022-11-26T20:50:03.289Z,96.70
2022-11-26T20:52:34.604Z,95.10
2022-11-26T20:55:06.375Z,94.50
2022-11-26T20:57:37.786Z,95.70
2022-11-26T21:00:08.905Z,98.40
2022-11-26T21:02:40.656Z,93.90
2022-11-26T21:05:10.666Z,94.80
2022-11-26T21:07:40.697Z,92.10
2022-11-26T21:10:12.083Z,92.70
2022-11-26T21:12:41.221Z,93.20
2022-11-26T21:15:12.100Z,93.50
2022-11-26T21:17:40.986Z,99.90
2022-11-26T21:20:11.284Z,99.90
2022-11-26T21:22:40.947Z,97.10
2022-11-26T21:25:12.654Z,99.90
2022-11-26T21:27:41.618Z,99.90
2022-11-26T21:30:11.606Z,99.90
2022-11-26T21:32:40.705Z,99.90
2022-11-26T21:35:10.671Z,99.90
2022-11-26T21:37:39.371Z,99.90
2022-11-26T21:40:11.377Z,99.90
2022-11-26T21:42:42.136Z,99.90
2022-11-26T21:45:11.704Z,99.90
2022-11-26T21:47:40.657Z,99.90
2022-11-26T21:50:11.080Z,99.90
2022-11-26T21:52:40.094Z,99.90
2022-11-26T21:55:11.802Z,99.90
2022-11-26T21:57:40.527Z,99.90
2022-11-26T22:00:11.691Z,99.90
2022-11-26T22:02:41.098Z,99.90
2022-11-26T22:05:10.170Z,99.90
2022-11-26T22:07:46.897Z,99.90
2022-11-26T22:10:19.149Z,99.90
2022-11-26T22:12:50.417Z,99.90
2022-11-26T22:15:24.381Z,99.90
2022-11-26T22:17:53.190Z,99.90
2022-11-26T22:20:22.124Z,99.90
2022-11-26T22:22:51.312Z,99.90
2022-11-26T22:25:24.411Z,99.90
2022-11-26T22:27:54.352Z,99.90
2022-11-26T22:30:24.804Z,99.90
2022-11-26T22:32:54.260Z,99.90
2022-11-26T22:35:23.216Z,99.90
2022-11-26T22:37:52.285Z,99.90
2022-11-26T22:40:23.296Z,99.90
2022-11-26T22:42:55.461Z,99.90
2022-11-26T22:45:32.019Z,99.90
2022-11-26T22:48:08.752Z,99.90
2022-11-26T22:50:38.736Z,99.90
2022-11-26T22:53:08.892Z,99.90
2022-11-26T22:55:42.085Z,99.90
2022-11-26T22:58:12.000Z,99.90
2022-11-26T23:00:51.492Z,99.90
2022-11-26T23:03:21.322Z,99.90
2022-11-26T23:05:50.219Z,99.90
2022-11-26T23:08:19.066Z,99.90
2022-11-26T23:10:49.832Z,99.90
2022-11-26T23:13:18.978Z,99.90
2022-11-26T23:15:48.109Z,99.90
2022-11-26T23:18:18.203Z,99.90
2022-11-26T23:20:47.493Z,99.90
2022-11-26T23:23:16.226Z,99.90
2022-11-26T23:25:45.148Z,99.90
2022-11-26T23:28:15.265Z,99.90
2022-11-26T23:30:44.056Z,99.90
2022-11-26T23:33:12.764Z,99.90
2022-11-26T23:35:43.908Z,99.90
2022-11-26T23:38:12.636Z,99.90
2022-11-26T23:40:41.424Z,99.90
2022-11-26T23:43:10.207Z,99.90
2022-11-26T23:45:40.453Z,99.90
2022-11-26T23:48:09.109Z,99.90
2022-11-26T23:50:40.005Z,99.90
2022-11-26T23:53:08.899Z,99.90
2022-11-26T23:55:37.636Z,99.90
2022-11-26T23:58:06.478Z,99.90
